Time;durP1;ratioP1;P1;durP2;ratioP2;P2;SDS_P1;SDS_P2;PMS_P1;PMS_P2;Temp;Humidity;BMP_temperature;BMP_pressure;BME280_temperature;BME280_humidity;BME280_pressure;Samples;Min_cycle;Max_cycle;Signal;HPM_P1;HPM_P2
2023/07/02 00:01:49;;;;;;;4.00;2.60;;;18.70;99.90;;;;;;5043392;28;20459;-79
2023/07/02 00:04:19;;;;;;;4.93;3.30;;;18.60;99.90;;;;;;5050598;28;20488;-79
2023/07/02 00:06:46;;;;;;;4.80;3.07;;;18.60;99.90;;;;;;5039648;28;20452;-79
2023/07/02 00:09:13;;;;;;;3.80;2.97;;;18.60;99.90;;;;;;5040084;28;20522;-80
2023/07/02 00:11:45;;;;;;;5.20;3.30;;;18.70;99.90;;;;;;5039811;28;20535;-79
2023/07/02 00:14:13;;;;;;;4.20;2.70;;;18.70;99.90;;;;;;5042789;28;20472;-78
2023/07/02 00:16:41;;;;;;;3.97;2.73;;;18.80;99.90;;;;;;5050590;28;20838;-79
2023/07/02 00:19:07;;;;;;;5.17;3.90;;;18.80;99.90;;;;;;5053130;28;20478;-79
2023/07/02 00:21:37;;;;;;;6.83;3.90;;;18.70;99.90;;;;;;5051386;28;20650;-79
2023/07/02 00:24:04;;;;;;;4.43;2.77;;;18.60;99.90;;;;;;5043249;28;20872;-79
2023/07/02 00:26:31;;;;;;;3.90;3.23;;;18.70;99.90;;;;;;5042344;28;20467;-80
2023/07/02 00:28:59;;;;;;;4.27;2.90;;;18.60;99.90;;;;;;5060463;28;20477;-79
2023/07/02 00:31:26;;;;;;;5.60;3.30;;;18.60;99.90;;;;;;5060372;28;20467;-80
2023/07/02 00:33:53;;;;;;;6.03;2.60;;;18.60;99.90;;;;;;5043708;28;20457;-79
2023/07/02 00:36:20;;;;;;;5.60;3.00;;;18.70;99.90;;;;;;5039442;28;20554;-79
2023/07/02 00:38:49;;;;;;;4.70;3.50;;;18.50;99.90;;;;;;5038743;28;20521;-81
2023/07/02 00:41:16;;;;;;;5.77;2.93;;;18.60;99.90;;;;;;5041286;28;20546;-79
2023/07/02 00:43:44;;;;;;;6.60;3.50;;;18.60;99.90;;;;;;5029490;28;20503;-80
2023/07/02 00:46:17;;;;;;;5.97;3.33;;;18.60;99.90;;;;;;5019306;28;20459;-80
2023/07/02 00:48:44;;;;;;;4.83;3.00;;;18.60;99.90;;;;;;5019828;28;20453;-78
2023/07/02 00:51:14;;;;;;;6.47;4.07;;;18.60;99.90;;;;;;5019430;28;20460;-80
2023/07/02 00:53:41;;;;;;;4.90;3.57;;;18.60;99.90;;;;;;5020218;28;20484;-80
2023/07/02 00:56:08;;;;;;;6.30;3.60;;;18.50;99.90;;;;;;5018184;28;20489;-79
2023/07/02 00:58:39;;;;;;;6.27;3.73;;;18.60;99.90;;;;;;5019417;28;20463;-78
2023/07/02 01:01:07;;;;;;;6.40;3.57;;;18.60;99.90;;;;;;5019119;28;20538;-77
2023/07/02 01:03:37;;;;;;;5.00;3.23;;;18.50;99.90;;;;;;5019353;28;20477;-79
2023/07/02 01:06:04;;;;;;;5.40;4.00;;;18.50;99.90;;;;;;5018632;28;20501;-79
2023/07/02 01:08:31;;;;;;;10.63;3.83;;;18.50;99.90;;;;;;5019133;28;20548;-79
2023/07/02 01:10:59;;;;;;;5.40;3.80;;;18.50;99.90;;;;;;5019253;28;20464;-80
2023/07/02 01:13:27;;;;;;;5.00;3.60;;;18.40;90.90;;;;;;5019042;28;20476;-80
2023/07/02 01:15:54;;;;;;;5.50;3.47;;;18.40;94.30;;;;;;5034246;28;20515;-79
2023/07/02 01:18:22;;;;;;;6.23;3.77;;;18.30;98.70;;;;;;5059220;28;20511;-78
2023/07/02 01:20:50;;;;;;;7.13;3.83;;;18.40;88.10;;;;;;5058752;28;20470;-80
2023/07/02 01:23:17;;;;;;;5.57;4.03;;;18.40;97.70;;;;;;5055243;28;20512;-80
2023/07/02 01:25:45;;;;;;;12.83;4.77;;;18.20;80.70;;;;;;5037928;28;20495;-79
2023/07/02 01:28:13;;;;;;;5.00;3.03;;;18.10;99.90;;;;;;5038275;28;21022;-79
2023/07/02 01:30:40;;;;;;;6.50;3.67;;;18.10;97.30;;;;;;5036805;28;20458;-80
2023/07/02 01:33:07;;;;;;;4.10;3.20;;;18.00;92.30;;;;;;5038673;28;20485;-79
2023/07/02 01:35:34;;;;;;;4.97;3.30;;;18.10;99.90;;;;;;5038275;28;20971;-78
2023/07/02 01:38:02;;;;;;;7.30;3.37;;;18.00;99.90;;;;;;5038611;28;20464;-79
2023/07/02 01:40:29;;;;;;;6.20;3.20;;;18.10;99.90;;;;;;5031846;28;20455;-79
2023/07/02 01:42:56;;;;;;;6.43;3.47;;;18.00;99.90;;;;;;5019433;28;20500;-79
2023/07/02 01:45:22;;;;;;;4.23;3.20;;;18.00;99.90;;;;;;5020076;28;20487;-77
2023/07/02 01:47:49;;;;;;;7.77;4.30;;;18.00;98.10;;;;;;5022073;28;20466;-79
2023/07/02 01:50:16;;;;;;;7.10;3.70;;;18.00;99.90;;;;;;5021827;28;20457;-80
2023/07/02 01:52:43;;;;;;;5.67;3.30;;;18.00;99.90;;;;;;5038203;28;20472;-79
2023/07/02 01:55:11;;;;;;;4.47;3.50;;;18.00;96.20;;;;;;5040381;28;20436;-79
2023/07/02 01:57:38;;;;;;;6.63;3.90;;;17.90;99.90;;;;;;5057692;28;20483;-78
2023/07/02 02:00:06;;;;;;;9.73;4.00;;;17.90;99.90;;;;;;5053176;28;20498;-77
2023/07/02 02:02:33;;;;;;;7.33;3.87;;;17.90;99.90;;;;;;5037465;28;20512;-79
2023/07/02 02:05:00;;;;;;;5.80;3.57;;;17.90;99.90;;;;;;5036702;28;20497;-79
2023/07/02 02:07:27;;;;;;;6.90;3.43;;;18.00;99.90;;;;;;5036446;28;20460;-79
2023/07/02 02:09:54;;;;;;;5.80;3.80;;;17.90;99.90;;;;;;5037103;28;20456;-79
2023/07/02 02:12:22;;;;;;;7.63;3.87;;;17.90;99.90;;;;;;5036080;28;20567;-79
2023/07/02 02:14:49;;;;;;;7.00;4.20;;;18.00;93.70;;;;;;5036990;28;20460;-79
2023/07/02 02:17:15;;;;;;;9.33;4.80;;;18.00;98.60;;;;;;5056270;28;20449;-78
2023/07/02 02:19:42;;;;;;;7.57;4.67;;;18.00;99.90;;;;;;5057520;28;20458;-79
2023/07/02 02:22:09;;;;;;;4.90;3.70;;;18.10;97.40;;;;;;5019995;28;20470;-80
2023/07/02 02:24:36;;;;;;;6.30;3.47;;;18.10;97.20;;;;;;5018689;28;20517;-78
2023/07/02 02:27:03;;;;;;;8.73;4.83;;;18.00;70.60;;;;;;5017668;28;20479;-78
2023/07/02 02:29:31;;;;;;;8.00;4.30;;;18.00;53.70;;;;;;5018556;28;20459;-79
2023/07/02 02:31:57;;;;;;;8.30;5.57;;;18.00;49.70;;;;;;5034092;28;20447;-79
2023/07/02 02:34:24;;;;;;;7.07;4.23;;;18.00;38.90;;;;;;5037000;28;20479;-78
2023/07/02 02:36:51;;;;;;;12.37;5.50;;;17.90;36.20;;;;;;5036423;28;20964;-78
2023/07/02 02:39:18;;;;;;;11.23;4.90;;;17.90;12.80;;;;;;5026209;28;20467;-79
2023/07/02 02:41:45;;;;;;;8.23;4.37;;;17.90;2.00;;;;;;5030931;28;20454;-79
2023/07/02 02:44:11;;;;;;;9.50;5.10;;;17.80;1.70;;;;;;5037201;28;20566;-79
2023/07/02 02:46:40;;;;;;;8.53;5.60;;;17.90;11.40;;;;;;5036886;28;20448;-80
2023/07/02 02:49:06;;;;;;;10.40;6.40;;;17.80;11.60;;;;;;5037570;28;20447;-79
2023/07/02 02:51:33;;;;;;;11.33;5.30;;;17.70;13.10;;;;;;5036014;28;20454;-77
2023/07/02 02:54:00;;;;;;;10.83;6.47;;;17.70;6.10;;;;;;5037270;28;20560;-80
2023/07/02 02:56:29;;;;;;;11.33;6.50;;;17.60;1.00;;;;;;5036834;28;20452;-78
2023/07/02 02:58:56;;;;;;;10.77;6.13;;;17.70;2.00;;;;;;5037525;28;20452;-79
2023/07/02 03:01:22;;;;;;;11.80;5.93;;;17.70;5.10;;;;;;5036059;28;20449;-80
2023/07/02 03:03:51;;;;;;;11.23;5.50;;;17.60;3.80;;;;;;5036831;28;20499;-78
2023/07/02 03:06:18;;;;;;;11.70;5.70;;;17.70;15.50;;;;;;5036977;28;21102;-78
2023/07/02 03:08:45;;;;;;;11.90;6.63;;;17.80;21.30;;;;;;5038114;28;20460;-79
2023/07/02 03:11:11;;;;;;;9.97;5.70;;;17.70;1.00;;;;;;5026015;28;20987;-78
2023/07/02 03:13:38;;;;;;;9.17;6.20;;;17.80;1.00;;;;;;5017671;28;20566;-78
2023/07/02 03:16:05;;;;;;;12.50;6.50;;;17.80;1.00;;;;;;5036621;28;20823;-78
2023/07/02 03:18:32;;;;;;;12.83;6.53;;;17.70;1.00;;;;;;5057504;28;20492;-79
2023/07/02 03:21:00;;;;;;;9.07;6.13;;;17.80;1.00;;;;;;5033725;28;20550;-79
2023/07/02 03:23:27;;;;;;;12.20;6.30;;;17.80;1.00;;;;;;5017699;28;20552;-79
2023/07/02 03:25:54;;;;;;;12.07;6.73;;;17.80;1.00;;;;;;5030604;28;20491;-78
2023/07/02 03:28:21;;;;;;;13.40;7.27;;;17.80;1.00;;;;;;5059241;28;20539;-78
2023/07/02 03:30:47;;;;;;;13.20;7.40;;;17.80;1.00;;;;;;5047728;28;20538;-79
2023/07/02 03:33:14;;;;;;;14.90;8.33;;;17.80;1.00;;;;;;5039156;28;20467;-78
2023/07/02 03:35:41;;;;;;;12.13;7.17;;;17.80;1.00;;;;;;5042034;28;20464;-79
2023/07/02 03:38:09;;;;;;;14.60;7.53;;;17.80;1.00;;;;;;5043170;28;20452;-79
2023/07/02 03:40:36;;;;;;;9.50;5.97;;;17.90;1.00;;;;;;5042101;28;20506;-79
2023/07/02 03:43:03;;;;;;;14.87;6.97;;;17.90;1.00;;;;;;5042822;28;20521;-78
2023/07/02 03:45:30;;;;;;;15.27;7.63;;;17.90;1.00;;;;;;5043853;28;20492;-79
2023/07/02 03:47:56;;;;;;;18.33;8.20;;;17.90;1.00;;;;;;5043419;28;20451;-79
2023/07/02 03:50:23;;;;;;;10.60;7.10;;;17.90;1.00;;;;;;5040779;28;20536;-77
2023/07/02 03:52:50;;;;;;;13.33;7.37;;;17.90;1.00;;;;;;5026795;28;20476;-78
2023/07/02 03:55:18;;;;;;;12.00;8.30;;;17.90;1.00;;;;;;5022313;28;20545;-79
2023/07/02 03:57:45;;;;;;;13.97;7.97;;;17.90;1.00;;;;;;5022852;28;20451;-79
2023/07/02 04:00:12;;;;;;;12.93;7.97;;;17.80;1.00;;;;;;5027682;28;20950;-77
2023/07/02 04:02:39;;;;;;;11.53;8.03;;;17.80;1.00;;;;;;5030094;28;20478;-78
2023/07/02 04:05:06;;;;;;;13.60;7.93;;;17.90;1.00;;;;;;5037826;28;20493;-76
2023/07/02 04:07:33;;;;;;;14.20;7.73;;;17.80;1.00;;;;;;5044107;28;20486;-80
2023/07/02 04:10:00;;;;;;;18.40;9.80;;;17.80;1.00;;;;;;5043393;28;20983;-79
2023/07/02 04:12:28;;;;;;;13.70;7.93;;;17.80;1.60;;;;;;5035160;28;20480;-79
2023/07/02 04:14:55;;;;;;;15.73;9.10;;;17.80;1.00;;;;;;5037402;28;20477;-78
2023/07/02 04:17:22;;;;;;;14.47;8.07;;;17.80;1.00;;;;;;5023480;28;20940;-79
2023/07/02 04:19:49;;;;;;;19.07;8.83;;;17.80;2.30;;;;;;5026531;28;20457;-77
2023/07/02 04:22:18;;;;;;;15.27;8.90;;;17.80;18.30;;;;;;5044200;28;20459;-78
2023/07/02 04:24:44;;;;;;;16.70;10.13;;;17.90;9.30;;;;;;5060327;22;20516;-81
2023/07/02 04:27:13;;;;;;;14.37;9.10;;;17.80;1.00;;;;;;5030803;28;21062;-81
2023/07/02 04:29:41;;;;;;;16.70;8.93;;;17.80;1.00;;;;;;5036844;28;20804;-81
2023/07/02 04:32:08;;;;;;;12.80;8.03;;;17.80;8.30;;;;;;5036396;28;20448;-81
2023/07/02 04:34:36;;;;;;;15.87;8.33;;;17.90;17.60;;;;;;5036001;28;20485;-81
2023/07/02 04:37:03;;;;;;;13.30;9.40;;;17.80;22.30;;;;;;5038547;28;20448;-82
2023/07/02 04:39:29;;;;;;;14.60;8.70;;;17.80;36.50;;;;;;5037359;28;20462;-83
2023/07/02 04:41:56;;;;;;;17.63;10.13;;;17.90;39.90;;;;;;5029606;28;20451;-83
2023/07/02 04:44:28;;;;;;;16.20;9.80;;;17.90;32.10;;;;;;5029414;28;20999;-82
2023/07/02 04:46:57;;;;;;;16.70;9.73;;;17.90;10.00;;;;;;5029025;28;20939;-82
2023/07/02 04:49:24;;;;;;;20.43;9.93;;;17.80;19.30;;;;;;5019723;28;20563;-83
2023/07/02 04:51:54;;;;;;;18.60;9.40;;;17.80;24.30;;;;;;5019857;28;20457;-81
2023/07/02 04:54:21;;;;;;;14.47;9.80;;;17.90;30.40;;;;;;5020420;28;20468;-81
2023/07/02 04:56:48;;;;;;;16.33;10.50;;;18.00;38.10;;;;;;5019189;28;20950;-80
2023/07/02 04:59:15;;;;;;;17.17;9.67;;;18.00;33.20;;;;;;5017978;28;20499;-80
2023/07/02 05:01:42;;;;;;;14.63;10.10;;;18.00;10.80;;;;;;5017626;28;20452;-80
2023/07/02 05:04:11;;;;;;;15.43;10.93;;;18.10;17.60;;;;;;5017164;28;20477;-80
2023/07/02 05:06:38;;;;;;;15.90;11.37;;;18.10;13.10;;;;;;5016963;28;20485;-80
2023/07/02 05:09:05;;;;;;;23.40;11.80;;;18.10;1.00;;;;;;5016965;28;20993;-81
2023/07/02 05:11:32;;;;;;;15.47;9.70;;;18.10;1.00;;;;;;5017126;28;20457;-80
2023/07/02 05:13:59;;;;;;;16.97;9.73;;;18.20;7.50;;;;;;5016571;28;20484;-79
2023/07/02 05:16:28;;;;;;;15.17;9.90;;;18.30;19.50;;;;;;5016732;28;20453;-80
2023/07/02 05:18:55;;;;;;;17.10;9.70;;;18.30;15.00;;;;;;5016381;28;20988;-80
2023/07/02 05:21:23;;;;;;;18.57;11.37;;;18.40;8.50;;;;;;5017639;28;20453;-80
2023/07/02 05:23:50;;;;;;;17.87;12.33;;;18.30;22.40;;;;;;5033585;28;20564;-80
2023/07/02 05:26:17;;;;;;;19.40;11.57;;;18.40;17.80;;;;;;5038029;28;20584;-82
2023/07/02 05:28:44;;;;;;;21.20;11.00;;;18.40;1.00;;;;;;5039088;28;20456;-80
2023/07/02 05:31:11;;;;;;;18.67;11.37;;;18.40;1.00;;;;;;5039638;28;20463;-81
2023/07/02 05:33:39;;;;;;;19.80;12.27;;;18.40;1.00;;;;;;5040874;28;20503;-81
2023/07/02 05:36:06;;;;;;;16.50;11.27;;;18.40;1.00;;;;;;5040915;28;20480;-81
2023/07/02 05:38:34;;;;;;;22.40;13.00;;;18.40;1.00;;;;;;5042164;28;20456;-82
2023/07/02 05:41:02;;;;;;;17.30;11.70;;;18.50;1.00;;;;;;5025131;28;20487;-82
2023/07/02 05:43:29;;;;;;;20.63;11.60;;;18.50;1.00;;;;;;5027404;28;20449;-82
2023/07/02 05:46:00;;;;;;;23.97;11.70;;;18.50;1.00;;;;;;5035176;28;20544;-82
2023/07/02 05:48:26;;;;;;;25.60;13.00;;;18.40;1.00;;;;;;5045048;28;20449;-83
2023/07/02 05:50:53;;;;;;;15.57;10.40;;;18.50;1.00;;;;;;5052618;28;21012;-80
2023/07/02 05:53:20;;;;;;;22.60;11.20;;;18.50;1.00;;;;;;5050890;28;20589;-80
2023/07/02 05:55:48;;;;;;;16.10;11.03;;;18.50;1.00;;;;;;5051809;28;20507;-80
2023/07/02 05:58:15;;;;;;;21.43;11.63;;;18.60;1.00;;;;;;5047957;28;20886;-81
2023/07/02 06:00:48;;;;;;;20.50;11.03;;;18.50;1.00;;;;;;5052616;28;20448;-82
2023/07/02 06:03:19;;;;;;;22.97;12.23;;;18.50;1.00;;;;;;5042659;28;20482;-81
2023/07/02 06:05:47;;;;;;;20.73;11.87;;;18.60;1.00;;;;;;5040013;28;20487;-81
2023/07/02 06:08:14;;;;;;;14.53;9.67;;;18.60;1.00;;;;;;5030691;28;20446;-82
2023/07/02 06:10:41;;;;;;;14.87;10.93;;;18.80;1.00;;;;;;5023676;28;20556;-81
2023/07/02 06:13:09;;;;;;;24.53;11.03;;;18.80;1.00;;;;;;5023150;28;20525;-82
2023/07/02 06:15:36;;;;;;;25.90;12.07;;;18.80;1.00;;;;;;5020524;28;20480;-80
2023/07/02 06:18:02;;;;;;;21.77;11.27;;;18.80;1.00;;;;;;5021781;28;20522;-82
2023/07/02 06:20:29;;;;;;;22.07;12.23;;;18.90;1.00;;;;;;5028430;28;20459;-82
2023/07/02 06:22:56;;;;;;;14.63;9.73;;;18.90;1.00;;;;;;5039097;28;20458;-81
2023/07/02 06:25:23;;;;;;;17.70;11.63;;;18.90;1.00;;;;;;5039190;28;20587;-82
2023/07/02 06:27:50;;;;;;;21.00;10.90;;;18.90;1.00;;;;;;5040267;28;20539;-81
2023/07/02 06:30:18;;;;;;;21.20;10.53;;;19.00;1.00;;;;;;5038175;28;20496;-81
2023/07/02 06:32:45;;;;;;;17.13;10.40;;;18.90;1.00;;;;;;5040143;28;20485;-81
2023/07/02 06:35:12;;;;;;;22.27;13.27;;;18.90;1.00;;;;;;5040460;28;20531;-80
2023/07/02 06:37:39;;;;;;;23.87;12.20;;;18.90;99.90;;;;;;5036865;28;20468;-81
2023/07/02 06:40:07;;;;;;;16.20;9.97;;;18.80;99.90;;;;;;5035294;28;20498;-81
2023/07/02 06:42:35;;;;;;;18.90;10.53;;;18.90;99.90;;;;;;5039072;28;20819;-81
2023/07/02 06:45:02;;;;;;;20.67;10.30;;;18.90;99.90;;;;;;5039352;28;20490;-81
2023/07/02 06:47:30;;;;;;;22.83;9.97;;;18.80;99.90;;;;;;5038916;28;20502;-81
2023/07/02 06:49:57;;;;;;;20.17;10.40;;;18.80;1.00;;;;;;5035707;28;20453;-80
2023/07/02 06:52:24;;;;;;;17.83;9.10;;;18.90;99.90;;;;;;5026395;28;20449;-80
2023/07/02 06:54:51;;;;;;;17.60;8.60;;;18.90;74.80;;;;;;5040584;28;20852;-80
2023/07/02 06:57:18;;;;;;;14.63;8.87;;;19.00;1.00;;;;;;5039104;28;20457;-81
2023/07/02 06:59:45;;;;;;;24.20;8.93;;;19.00;99.90;;;;;;5036999;28;20746;-82
2023/07/02 07:02:11;;;;;;;18.77;8.90;;;19.00;1.00;;;;;;5034514;28;20578;-79
2023/07/02 07:04:40;;;;;;;21.33;9.87;;;19.00;91.60;;;;;;5031219;28;20494;-79
2023/07/02 07:07:06;;;;;;;16.33;8.97;;;19.00;99.90;;;;;;5032019;28;20491;-80
2023/07/02 07:09:33;;;;;;;16.17;8.73;;;19.00;99.90;;;;;;5034427;28;20509;-80
2023/07/02 07:12:00;;;;;;;16.27;9.73;;;19.10;1.00;;;;;;5033913;28;20466;-81
2023/07/02 07:14:27;;;;;;;21.63;9.07;;;19.20;99.90;;;;;;5037348;28;20938;-81
2023/07/02 07:16:54;;;;;;;19.67;9.87;;;19.10;1.00;;;;;;5027803;28;20524;-79
2023/07/02 07:19:20;;;;;;;19.07;9.97;;;19.20;9.50;;;;;;5037106;28;20467;-81
2023/07/02 07:21:48;;;;;;;23.50;9.70;;;19.30;1.00;;;;;;5037782;28;20956;-81
2023/07/02 07:24:15;;;;;;;15.00;8.17;;;19.30;99.90;;;;;;5031771;28;20547;-79
2023/07/02 07:26:42;;;;;;;21.40;8.60;;;19.50;99.90;;;;;;5039187;28;20575;-79
2023/07/02 07:29:09;;;;;;;17.87;9.00;;;19.60;99.90;;;;;;5039438;28;20456;-79
2023/07/02 07:31:36;;;;;;;16.13;10.03;;;19.70;99.90;;;;;;5037177;28;20468;-80
2023/07/02 07:34:03;;;;;;;16.50;9.00;;;19.80;1.00;;;;;;5020146;28;20493;-81
2023/07/02 07:36:29;;;;;;;18.17;8.90;;;19.70;1.00;;;;;;5018614;28;20967;-79
2023/07/02 07:38:57;;;;;;;18.00;10.03;;;19.90;1.00;;;;;;5035892;28;20538;-78
2023/07/02 07:41:24;;;;;;;14.70;8.33;;;19.90;1.00;;;;;;5038817;28;20454;-80
2023/07/02 07:43:51;;;;;;;13.93;9.13;;;19.90;1.00;;;;;;5038779;28;20555;-80
2023/07/02 07:46:19;;;;;;;14.23;8.30;;;20.10;1.00;;;;;;5038935;28;20566;-79
2023/07/02 07:48:46;;;;;;;15.03;9.27;;;20.10;1.00;;;;;;5041810;28;20460;-80
2023/07/02 07:51:12;;;;;;;14.80;8.80;;;20.20;1.00;;;;;;5041887;28;20514;-80
2023/07/02 07:53:39;;;;;;;13.27;9.27;;;20.30;1.00;;;;;;5022067;28;20991;-79
2023/07/02 07:56:08;;;;;;;14.60;8.50;;;20.20;1.00;;;;;;5021984;28;20449;-79
2023/07/02 07:58:34;;;;;;;20.50;10.53;;;20.20;1.00;;;;;;5025010;28;20540;-79
2023/07/02 08:01:02;;;;;;;16.90;9.70;;;20.10;1.00;;;;;;5040084;28;20457;-81
2023/07/02 08:03:28;;;;;;;16.77;8.50;;;20.00;1.00;;;;;;5040258;28;20451;-82
2023/07/02 08:05:55;;;;;;;14.60;8.40;;;20.00;1.00;;;;;;5039212;28;20457;-82
2023/07/02 08:08:22;;;;;;;15.23;9.97;;;19.80;1.00;;;;;;5039443;28;20450;-81
2023/07/02 08:10:50;;;;;;;15.20;9.13;;;19.70;1.00;;;;;;5039545;28;20445;-81
2023/07/02 08:13:18;;;;;;;19.87;8.60;;;19.70;1.00;;;;;;5039781;28;20455;-82
2023/07/02 08:15:45;;;;;;;13.60;8.50;;;19.80;1.00;;;;;;5039591;28;21066;-80
2023/07/02 08:18:14;;;;;;;16.63;9.63;;;20.10;1.00;;;;;;5040145;28;20453;-81
2023/07/02 08:20:41;;;;;;;18.60;9.47;;;20.10;1.00;;;;;;5038334;28;20543;-81
2023/07/02 08:23:08;;;;;;;15.10;8.60;;;20.30;1.00;;;;;;5038661;28;20533;-80
2023/07/02 08:25:35;;;;;;;19.33;8.17;;;20.40;1.00;;;;;;5038454;28;20477;-81
2023/07/02 08:28:02;;;;;;;18.37;9.10;;;20.40;1.00;;;;;;5038703;28;20850;-81
2023/07/02 08:30:30;;;;;;;12.00;7.87;;;20.40;1.00;;;;;;5037640;28;20463;-79
2023/07/02 08:32:57;;;;;;;17.17;9.30;;;20.70;1.00;;;;;;5038667;28;20451;-81
2023/07/02 08:35:24;;;;;;;17.83;8.80;;;20.70;1.00;;;;;;5038528;28;20556;-79
2023/07/02 08:37:50;;;;;;;16.90;8.73;;;20.80;1.00;;;;;;5038705;28;20452;-81
2023/07/02 08:40:18;;;;;;;11.53;7.63;;;20.80;1.00;;;;;;5036834;28;21232;-82
2023/07/02 08:42:46;;;;;;;17.47;9.10;;;20.60;1.00;;;;;;5038311;28;20453;-79
2023/07/02 08:45:15;;;;;;;12.13;8.00;;;20.60;1.00;;;;;;5037724;28;20472;-79
2023/07/02 08:47:44;;;;;;;18.70;9.07;;;20.50;1.00;;;;;;5038482;28;20484;-80
2023/07/02 08:50:12;;;;;;;12.80;7.57;;;20.50;1.00;;;;;;5037965;28;20524;-79
2023/07/02 08:52:39;;;;;;;14.23;7.80;;;20.60;1.00;;;;;;5038770;28;20449;-81
2023/07/02 08:55:07;;;;;;;15.70;8.20;;;20.90;1.00;;;;;;5034290;28;20481;-80
2023/07/02 08:57:35;;;;;;;16.93;7.90;;;21.10;1.00;;;;;;5021275;28;20449;-81
2023/07/02 09:00:07;;;;;;;15.00;6.90;;;21.40;1.00;;;;;;5036877;28;20459;-81
2023/07/02 09:02:34;;;;;;;15.43;7.60;;;21.40;1.00;;;;;;5036491;28;20518;-80
2023/07/02 09:05:03;;;;;;;15.93;6.87;;;21.40;99.90;;;;;;5036859;28;20468;-80
2023/07/02 09:07:30;;;;;;;13.77;7.13;;;21.50;1.00;;;;;;5034688;28;20481;-81
2023/07/02 09:09:57;;;;;;;11.87;6.50;;;21.40;1.00;;;;;;5036547;28;20460;-83
2023/07/02 09:12:25;;;;;;;15.70;7.03;;;21.10;1.00;;;;;;5039288;28;20954;-81
2023/07/02 09:14:57;;;;;;;11.00;6.03;;;21.00;1.00;;;;;;5051141;28;21019;-87
2023/07/02 09:17:29;;;;;;;13.73;8.20;;;20.90;1.00;;;;;;5036506;28;20445;-80
2023/07/02 09:19:56;;;;;;;13.33;6.20;;;21.10;1.00;;;;;;5041777;28;20822;-81
2023/07/02 09:22:24;;;;;;;14.03;5.97;;;21.10;99.90;;;;;;5038551;28;20452;-81
2023/07/02 09:24:55;;;;;;;10.37;6.33;;;21.30;99.90;;;;;;5044285;28;20999;-81
2023/07/02 09:27:22;;;;;;;14.33;6.40;;;21.70;99.90;;;;;;5042881;28;20501;-81
2023/07/02 09:29:54;;;;;;;11.07;6.63;;;21.80;99.90;;;;;;5048062;28;20455;-85
2023/07/02 09:32:27;;;;;;;13.70;5.90;;;21.80;99.90;;;;;;5045718;28;20444;-80
2023/07/02 09:35:04;;;;;;;11.70;7.40;;;21.80;99.90;;;;;;5041752;28;20468;-83
2023/07/02 09:37:36;;;;;;;10.57;5.03;;;21.80;99.90;;;;;;5043442;28;20433;-82
2023/07/02 09:40:11;;;;;;;11.37;6.27;;;21.80;99.90;;;;;;5045183;28;20645;-82
2023/07/02 09:42:42;;;;;;;8.40;6.10;;;22.00;99.90;;;;;;5043823;28;20453;-80
2023/07/02 09:45:11;;;;;;;10.27;5.90;;;22.20;99.90;;;;;;5033963;28;20992;-81
2023/07/02 09:47:45;;;;;;;13.87;5.97;;;22.50;99.90;;;;;;5031825;28;21116;-81
2023/07/02 09:50:15;;;;;;;14.43;6.63;;;22.50;99.90;;;;;;5025917;28;20984;-82
2023/07/02 09:52:51;;;;;;;14.40;6.57;;;22.60;99.90;;;;;;5029314;28;20454;-87
2023/07/02 09:55:19;;;;;;;9.07;6.00;;;22.50;99.90;;;;;;5025914;28;20563;-82
2023/07/02 09:57:46;;;;;;;9.00;5.37;;;22.10;99.90;;;;;;5035789;28;20460;-81
2023/07/02 10:00:17;;;;;;;14.30;6.30;;;22.10;99.90;;;;;;5034310;28;20962;-83
2023/07/02 10:02:54;;;;;;;16.50;6.63;;;22.20;99.90;;;;;;5037209;28;20945;-83
2023/07/02 10:05:28;;;;;;;15.23;8.13;;;21.80;99.90;;;;;;5029095;28;20559;-82
2023/07/02 10:08:03;;;;;;;12.57;6.57;;;21.60;99.90;;;;;;5035932;28;20506;-82
2023/07/02 10:10:37;;;;;;;14.00;6.80;;;21.30;99.90;;;;;;5037614;28;20452;-85
2023/07/02 10:13:07;;;;;;;13.30;7.13;;;21.10;99.90;;;;;;5037685;28;20471;-83
2023/07/02 10:15:37;;;;;;;13.57;6.00;;;21.00;99.90;;;;;;5037738;28;20475;-84
2023/07/02 10:18:10;;;;;;;17.97;7.67;;;20.90;99.90;;;;;;5026683;28;20454;-84
2023/07/02 10:20:42;;;;;;;15.73;7.00;;;21.40;99.90;;;;;;5031195;28;20453;-84
2023/07/02 10:23:13;;;;;;;15.27;7.80;;;21.90;99.90;;;;;;5020779;28;20446;-84
2023/07/02 10:25:43;;;;;;;14.30;7.07;;;21.70;99.90;;;;;;5021993;28;20974;-84
2023/07/02 10:28:19;;;;;;;14.40;6.40;;;21.70;99.90;;;;;;5024039;28;20487;-84
2023/07/02 10:30:47;;;;;;;14.20;6.33;;;21.30;99.90;;;;;;5035380;28;20809;-81
2023/07/02 10:33:23;;;;;;;12.00;5.23;;;21.10;99.90;;;;;;5033836;28;20457;-83
2023/07/02 10:35:52;;;;;;;12.57;5.83;;;21.10;99.90;;;;;;5015783;28;20456;-83
2023/07/02 10:38:25;;;;;;;10.37;5.90;;;21.10;99.90;;;;;;5020020;28;20481;-84
2023/07/02 10:41:00;;;;;;;11.70;6.10;;;21.00;99.90;;;;;;5016063;28;20868;-83
2023/07/02 10:43:36;;;;;;;13.10;6.33;;;20.90;99.90;;;;;;5013233;28;20840;-83
2023/07/02 10:46:07;;;;;;;9.70;6.10;;;20.90;99.90;;;;;;5029285;28;20451;-83
2023/07/02 10:48:35;;;;;;;10.87;6.20;;;21.00;99.90;;;;;;5018088;28;20477;-83
2023/07/02 10:51:14;;;;;;;10.23;5.37;;;21.50;99.90;;;;;;5030943;28;20456;-83
2023/07/02 10:53:44;;;;;;;12.40;6.20;;;22.30;99.90;;;;;;5020394;28;20475;-85
2023/07/02 10:56:17;;;;;;;10.10;5.40;;;23.20;99.90;;;;;;5033271;28;20475;-83
2023/07/02 10:58:44;;;;;;;11.37;6.07;;;24.10;99.90;;;;;;5032072;28;20453;-83
2023/07/02 11:01:18;;;;;;;11.57;5.60;;;24.60;99.90;;;;;;5024587;28;20576;-84
2023/07/02 11:03:45;;;;;;;18.20;7.50;;;25.50;99.90;;;;;;5035249;28;20564;-83
2023/07/02 11:06:12;;;;;;;10.87;6.07;;;26.00;99.90;;;;;;5063628;22;20595;-81
2023/07/02 11:08:39;;;;;;;10.30;5.97;;;25.70;99.90;;;;;;5067510;28;21103;-81
2023/07/02 11:11:09;;;;;;;9.80;5.97;;;25.30;99.90;;;;;;5069740;28;20471;-80
2023/07/02 11:13:45;;;;;;;11.50;6.67;;;24.80;99.90;;;;;;5082703;28;20467;-81
2023/07/02 11:16:19;;;;;;;7.97;5.57;;;24.30;99.90;;;;;;5080133;28;20815;-79
2023/07/02 11:18:46;;;;;;;10.63;6.33;;;24.10;99.90;;;;;;5076626;28;20458;-82
2023/07/02 11:21:13;;;;;;;15.20;6.23;;;23.70;99.90;;;;;;5059504;28;20498;-80
2023/07/02 11:23:40;;;;;;;10.50;6.30;;;23.60;99.90;;;;;;5055504;28;20455;-80
2023/07/02 11:26:09;;;;;;;13.70;6.27;;;23.20;99.90;;;;;;5059786;28;20515;-80
2023/07/02 11:28:36;;;;;;;13.80;5.83;;;22.90;99.90;;;;;;5062121;28;20555;-81
2023/07/02 11:31:05;;;;;;;10.23;5.20;;;22.60;99.90;;;;;;5067911;28;20444;-80
2023/07/02 11:33:36;;;;;;;9.50;5.57;;;22.40;99.90;;;;;;5064092;28;20444;-80
2023/07/02 11:36:03;;;;;;;11.97;5.00;;;22.40;99.90;;;;;;5062699;28;21028;-81
2023/07/02 11:38:30;;;;;;;12.13;6.23;;;22.20;99.90;;;;;;5065646;28;20479;-81
2023/07/02 11:40:57;;;;;;;9.40;4.87;;;22.10;99.90;;;;;;5065675;28;20508;-80
2023/07/02 11:43:26;;;;;;;15.23;5.47;;;22.60;99.90;;;;;;5064749;28;20494;-81
2023/07/02 11:45:53;;;;;;;12.07;5.03;;;22.90;99.90;;;;;;5065168;28;20982;-81
2023/07/02 11:48:20;;;;;;;11.37;6.37;;;23.10;99.90;;;;;;5053251;28;21085;-78
2023/07/02 11:50:49;;;;;;;13.33;6.00;;;24.00;99.90;;;;;;5049920;28;20949;-79
2023/07/02 11:53:17;;;;;;;10.67;6.27;;;24.70;99.90;;;;;;5046505;28;20456;-78
2023/07/02 11:55:44;;;;;;;11.20;5.80;;;25.10;99.90;;;;;;5058727;28;20498;-80
2023/07/02 11:58:11;;;;;;;9.00;5.10;;;25.20;99.90;;;;;;5058981;28;20511;-79
2023/07/02 12:00:41;;;;;;;9.97;5.83;;;25.80;99.90;;;;;;5060709;28;20462;-80
2023/07/02 12:03:09;;;;;;;12.23;7.13;;;26.00;99.90;;;;;;5059835;28;20428;-80
2023/07/02 12:05:36;;;;;;;11.10;5.90;;;25.40;99.90;;;;;;5059378;28;20515;-79
2023/07/02 12:08:03;;;;;;;13.57;6.20;;;25.20;99.90;;;;;;5056227;28;21051;-79
2023/07/02 12:10:30;;;;;;;8.83;5.50;;;25.30;99.90;;;;;;5060592;28;20444;-79
2023/07/02 12:12:57;;;;;;;9.43;4.97;;;24.90;99.90;;;;;;5054157;28;20453;-80
2023/07/02 12:15:27;;;;;;;9.93;5.00;;;24.70;99.90;;;;;;5069280;28;20475;-79
2023/07/02 12:18:04;;;;;;;8.47;4.93;;;24.40;99.90;;;;;;5068964;28;20452;-78
2023/07/02 12:20:31;;;;;;;9.47;5.30;;;24.20;99.90;;;;;;5059764;28;20431;-79
2023/07/02 12:23:05;;;;;;;10.00;4.70;;;23.90;99.90;;;;;;5057958;28;20986;-81
2023/07/02 12:25:32;;;;;;;13.53;5.10;;;23.60;99.90;;;;;;5056772;28;20478;-79
2023/07/02 12:27:59;;;;;;;8.90;4.50;;;23.60;99.90;;;;;;5057868;28;20502;-80
2023/07/02 12:30:31;;;;;;;11.00;5.53;;;23.80;99.90;;;;;;5057537;28;20467;-80
2023/07/02 12:33:00;;;;;;;9.27;4.53;;;24.00;99.90;;;;;;5058277;28;20455;-83
2023/07/02 12:35:30;;;;;;;11.20;5.07;;;24.20;99.90;;;;;;5057428;28;20904;-80
2023/07/02 12:37:57;;;;;;;10.13;5.20;;;24.60;99.90;;;;;;5058215;28;20936;-80
2023/07/02 12:40:24;;;;;;;11.60;5.53;;;25.20;99.90;;;;;;5053072;28;20483;-80
2023/07/02 12:42:51;;;;;;;11.50;5.47;;;25.50;99.90;;;;;;5043578;28;20450;-80
2023/07/02 12:45:20;;;;;;;11.97;5.80;;;25.40;99.90;;;;;;5057409;28;20565;-79
2023/07/02 12:47:46;;;;;;;8.47;5.17;;;25.60;99.90;;;;;;5053943;28;20863;-79